Time;durP1;ratioP1;P1;durP2;ratioP2;P2;SDS_P1;SDS_P2;PMS_P1;PMS_P2;Temp;Humidity;BMP_temperature;BMP_pressure;BME280_temperature;BME280_humidity;BME280_pressure;Samples;Min_cycle;Max_cycle;Signal;HPM_P1;HPM_P2
2022/03/12 00:00:35;;;;;;;0.25;0.08;;;7.10;51.30;;;;;;5052793;28;20064;-79
2022/03/12 00:03:01;;;;;;;0.15;0.00;;;7.10;51.20;;;;;;5053120;28;20065;-79
2022/03/12 00:05:29;;;;;;;0.43;0.43;;;7.20;51.30;;;;;;5052883;28;20086;-79
2022/03/12 00:07:55;;;;;;;0.80;0.10;;;7.10;51.70;;;;;;5052996;28;20060;-79
2022/03/12 00:10:23;;;;;;;0.98;0.10;;;7.00;51.40;;;;;;5052573;28;20135;-79
2022/03/12 00:12:50;;;;;;;1.20;0.32;;;7.00;51.80;;;;;;5052710;28;20496;-79
2022/03/12 00:15:16;;;;;;;0.47;0.10;;;7.00;52.10;;;;;;5052924;28;20044;-79
2022/03/12 00:17:46;;;;;;;0.00;0.00;;;7.00;51.70;;;;;;5052903;28;20484;-79
2022/03/12 00:20:18;;;;;;;0.88;0.57;;;7.00;52.60;;;;;;5052598;28;20552;-79
2022/03/12 00:22:50;;;;;;;0.20;0.20;;;6.90;52.80;;;;;;5052889;28;20064;-79
2022/03/12 00:25:22;;;;;;;0.10;0.00;;;6.90;52.10;;;;;;5053136;28;20063;-79
2022/03/12 00:27:50;;;;;;;0.10;0.10;;;6.80;52.30;;;;;;5036474;28;20045;-79
2022/03/12 00:30:22;;;;;;;0.20;0.00;;;6.80;52.20;;;;;;5052701;28;20099;-79
2022/03/12 00:32:49;;;;;;;0.22;0.20;;;6.80;52.20;;;;;;5036395;28;20143;-79
2022/03/12 00:35:16;;;;;;;7.72;0.85;;;6.80;52.70;;;;;;5052983;28;20381;-79
2022/03/12 00:37:42;;;;;;;0.00;0.00;;;6.90;52.30;;;;;;5052730;28;20131;-79
2022/03/12 00:40:09;;;;;;;0.05;0.05;;;6.80;52.30;;;;;;5052530;28;20052;-79
2022/03/12 00:42:34;;;;;;;0.00;0.00;;;6.80;52.50;;;;;;5052476;28;20353;-79
2022/03/12 00:45:00;;;;;;;0.30;0.30;;;6.90;52.30;;;;;;5052455;28;20075;-79
2022/03/12 00:47:26;;;;;;;3.40;1.13;;;6.80;52.90;;;;;;5052408;28;20135;-79
2022/03/12 00:49:53;;;;;;;0.10;0.10;;;6.90;53.20;;;;;;5052541;28;20049;-79
2022/03/12 00:52:20;;;;;;;1.48;0.00;;;6.80;52.70;;;;;;5035827;28;20056;-79
2022/03/12 00:54:45;;;;;;;0.00;0.00;;;6.80;52.70;;;;;;5052492;28;20037;-79
2022/03/12 00:57:12;;;;;;;0.00;0.00;;;6.90;52.60;;;;;;5052427;28;20045;-79
2022/03/12 00:59:42;;;;;;;0.15;0.15;;;6.90;52.40;;;;;;5052271;28;20092;-79
2022/03/12 01:02:14;;;;;;;0.43;0.43;;;6.90;53.50;;;;;;5036208;28;20052;-79
2022/03/12 01:04:40;;;;;;;0.10;0.10;;;6.90;52.60;;;;;;5035783;28;20053;-79
2022/03/12 01:07:05;;;;;;;0.10;0.00;;;6.90;52.50;;;;;;5035616;28;20067;-79
2022/03/12 01:09:31;;;;;;;0.82;0.15;;;6.90;52.40;;;;;;5052119;28;20053;-79
2022/03/12 01:11:57;;;;;;;4.10;0.10;;;6.90;53.50;;;;;;5035603;28;20051;-79
2022/03/12 01:14:23;;;;;;;0.25;0.25;;;6.90;52.90;;;;;;5052250;28;20045;-79
2022/03/12 01:16:49;;;;;;;0.00;0.00;;;6.90;52.70;;;;;;5052272;28;20091;-79
2022/03/12 01:19:15;;;;;;;0.40;0.00;;;6.90;52.30;;;;;;5035708;28;20088;-79
2022/03/12 01:21:41;;;;;;;0.00;0.00;;;7.00;52.50;;;;;;5052507;28;20440;-79
2022/03/12 01:24:07;;;;;;;0.00;0.00;;;7.00;52.30;;;;;;5052092;28;20038;-79
2022/03/12 01:26:38;;;;;;;0.00;0.00;;;6.90;52.80;;;;;;5051844;28;20548;-79
2022/03/12 01:29:04;;;;;;;0.00;0.00;;;7.20;53.00;;;;;;5052323;28;20052;-79
2022/03/12 01:31:29;;;;;;;1.00;0.70;;;6.90;52.70;;;;;;5051919;28;20431;-79
2022/03/12 01:33:55;;;;;;;0.00;0.00;;;6.90;53.10;;;;;;5035446;28;20087;-79
2022/03/12 01:36:21;;;;;;;0.22;0.22;;;7.00;52.20;;;;;;5052172;28;20075;-79
2022/03/12 01:38:52;;;;;;;1.75;0.05;;;7.00;52.30;;;;;;5035568;28;20049;-79
2022/03/12 01:41:24;;;;;;;0.63;0.00;;;7.00;52.60;;;;;;5051913;28;20128;-79
2022/03/12 01:43:53;;;;;;;0.00;0.00;;;7.00;52.50;;;;;;5052024;28;20053;-79
2022/03/12 01:46:39;;;;;;;0.63;0.60;;;6.90;52.90;;;;;;5035335;28;20041;-79
2022/03/12 01:49:11;;;;;;;0.60;0.60;;;6.90;52.80;;;;;;5055030;28;20045;-79
2022/03/12 01:51:39;;;;;;;0.10;0.00;;;6.90;53.00;;;;;;5055590;28;20041;-79
2022/03/12 01:54:04;;;;;;;0.00;0.00;;;6.80;53.20;;;;;;5055726;28;20049;-79
2022/03/12 01:56:30;;;;;;;0.13;0.13;;;6.80;53.10;;;;;;5055580;28;20048;-79
2022/03/12 01:58:58;;;;;;;0.10;0.10;;;6.90;53.50;;;;;;5055592;28;20477;-79
2022/03/12 02:01:27;;;;;;;0.47;0.05;;;6.80;53.60;;;;;;5055043;28;20057;-79
2022/03/12 02:03:54;;;;;;;0.73;0.73;;;6.80;53.50;;;;;;5055473;28;20562;-79
2022/03/12 02:06:21;;;;;;;0.10;0.00;;;6.80;53.60;;;;;;5055213;28;20057;-79
2022/03/12 02:08:49;;;;;;;0.75;0.45;;;6.70;53.30;;;;;;5055542;28;20045;-79
2022/03/12 02:11:25;;;;;;;4.22;0.93;;;6.70;53.00;;;;;;5038205;28;20080;-79
2022/03/12 02:13:58;;;;;;;0.10;0.10;;;6.80;53.40;;;;;;5038690;28;20473;-79
2022/03/12 02:16:25;;;;;;;0.00;0.00;;;6.80;52.60;;;;;;5055219;28;20053;-79
2022/03/12 02:18:51;;;;;;;1.02;0.10;;;6.80;52.90;;;;;;5054830;28;20049;-79
2022/03/12 02:21:40;;;;;;;2.80;1.70;;;6.80;52.80;;;;;;5055302;28;20081;-79
2022/03/12 02:24:15;;;;;;;0.10;0.10;;;6.80;53.10;;;;;;5038561;28;20139;-79
2022/03/12 02:26:43;;;;;;;1.75;0.38;;;6.80;53.40;;;;;;5039317;28;20091;-79
2022/03/12 02:29:18;;;;;;;0.13;0.13;;;6.70;53.50;;;;;;5054950;28;20362;-79
2022/03/12 02:32:09;;;;;;;0.00;0.00;;;6.80;53.70;;;;;;5054707;28;20048;-79
2022/03/12 02:34:46;;;;;;;0.10;0.10;;;6.80;53.50;;;;;;5038226;28;20136;-79
2022/03/12 02:37:27;;;;;;;0.10;0.10;;;6.70;53.00;;;;;;5054662;28;20088;-79
2022/03/12 02:39:52;;;;;;;1.02;0.47;;;6.80;53.00;;;;;;5038212;28;20040;-79
2022/03/12 02:42:18;;;;;;;0.00;0.00;;;6.80;53.30;;;;;;5054559;28;20087;-79
2022/03/12 02:44:44;;;;;;;0.15;0.10;;;6.80;53.10;;;;;;5054634;28;20049;-79
2022/03/12 02:47:14;;;;;;;0.28;0.28;;;6.80;53.20;;;;;;5037992;28;20052;-79
2022/03/12 02:50:06;;;;;;;1.20;0.55;;;6.80;53.00;;;;;;5054540;28;20088;-79
2022/03/12 02:52:37;;;;;;;3.78;0.68;;;6.80;53.60;;;;;;5037953;28;20388;-79
2022/03/12 02:55:03;;;;;;;1.58;0.43;;;6.80;53.10;;;;;;5037983;28;20098;-79
2022/03/12 02:57:30;;;;;;;0.15;0.15;;;6.80;53.20;;;;;;5054436;28;20045;-79
2022/03/12 03:00:03;;;;;;;0.30;0.10;;;6.80;53.20;;;;;;5037229;28;20053;-78
2022/03/12 03:02:39;;;;;;;0.00;0.00;;;6.80;53.50;;;;;;5054379;28;20037;-79
2022/03/12 03:05:16;;;;;;;0.38;0.35;;;6.70;53.60;;;;;;5055012;28;20045;-79
2022/03/12 03:07:45;;;;;;;0.50;0.40;;;6.70;53.30;;;;;;5053913;28;20481;-79
2022/03/12 03:10:28;;;;;;;0.00;0.00;;;6.70;53.60;;;;;;5053989;28;20053;-78
2022/03/12 03:12:54;;;;;;;0.08;0.08;;;6.70;53.40;;;;;;5054025;28;20052;-79
2022/03/12 03:15:20;;;;;;;0.13;0.10;;;6.80;53.40;;;;;;5054052;28;20147;-79
2022/03/12 03:17:47;;;;;;;0.20;0.20;;;6.70;53.90;;;;;;5053983;28;20048;-79
2022/03/12 03:20:14;;;;;;;0.30;0.10;;;6.70;53.80;;;;;;5053783;28;20045;-79
2022/03/12 03:22:40;;;;;;;0.00;0.00;;;6.60;54.20;;;;;;5037122;28;20140;-79
2022/03/12 03:25:05;;;;;;;0.00;0.00;;;6.60;53.30;;;;;;5053670;28;20122;-79
2022/03/12 03:27:31;;;;;;;0.20;0.20;;;6.60;53.90;;;;;;5053464;28;20090;-79
2022/03/12 03:29:57;;;;;;;0.05;0.00;;;6.50;53.80;;;;;;5037225;28;20505;-79
2022/03/12 03:32:24;;;;;;;0.90;0.22;;;6.60;53.80;;;;;;5053583;28;20546;-78
2022/03/12 03:34:49;;;;;;;0.20;0.20;;;6.60;53.70;;;;;;5053848;28;20084;-79
2022/03/12 03:37:16;;;;;;;0.03;0.03;;;6.50;53.50;;;;;;5036976;28;20476;-79
2022/03/12 03:39:41;;;;;;;0.52;0.20;;;6.50;53.30;;;;;;5053515;28;20131;-79
2022/03/12 03:42:07;;;;;;;0.20;0.20;;;6.60;53.30;;;;;;5036627;28;20095;-79
2022/03/12 03:44:33;;;;;;;0.28;0.13;;;6.50;53.20;;;;;;5053490;28;20073;-79
2022/03/12 03:46:59;;;;;;;0.30;0.30;;;6.50;53.30;;;;;;5053249;28;20037;-78
2022/03/12 03:49:25;;;;;;;0.08;0.08;;;6.50;53.80;;;;;;5053280;28;20037;-79
2022/03/12 03:51:51;;;;;;;0.57;0.03;;;6.50;53.20;;;;;;5053345;28;20087;-79
2022/03/12 03:54:17;;;;;;;0.13;0.00;;;6.50;53.30;;;;;;5053423;28;20094;-79
2022/03/12 03:56:43;;;;;;;0.60;0.40;;;6.50;53.60;;;;;;5036853;28;20543;-79
2022/03/12 03:59:09;;;;;;;0.00;0.00;;;6.50;53.60;;;;;;5053760;28;20405;-79
2022/03/12 04:01:41;;;;;;;1.23;0.20;;;6.50;53.90;;;;;;5036611;28;20559;-79
2022/03/12 04:04:12;;;;;;;3.60;0.43;;;6.50;53.70;;;;;;5036637;28;20049;-79
2022/03/12 04:06:38;;;;;;;1.65;0.08;;;6.50;53.90;;;;;;5036389;28;20055;-79
2022/03/12 04:09:03;;;;;;;0.00;0.00;;;6.40;54.10;;;;;;5052915;28;20041;-79
2022/03/12 04:11:29;;;;;;;0.15;0.10;;;6.40;54.10;;;;;;5036083;28;20397;-79
2022/03/12 04:13:58;;;;;;;0.28;0.28;;;6.40;54.40;;;;;;5053161;28;20480;-79
2022/03/12 04:16:23;;;;;;;0.43;0.20;;;6.40;54.20;;;;;;5053086;28;20051;-79
2022/03/12 04:18:50;;;;;;;0.68;0.20;;;6.30;54.30;;;;;;5052971;28;20049;-78
2022/03/12 04:21:18;;;;;;;1.65;1.25;;;6.30;54.20;;;;;;5052723;28;20492;-79
2022/03/12 04:23:46;;;;;;;0.00;0.00;;;6.30;54.10;;;;;;5052817;28;20110;-79
2022/03/12 04:26:13;;;;;;;0.47;0.47;;;6.30;54.10;;;;;;5036876;28;20053;-79
2022/03/12 04:28:40;;;;;;;0.20;0.10;;;6.30;54.20;;;;;;5036348;28;20052;-78
2022/03/12 04:31:07;;;;;;;0.00;0.00;;;6.30;54.30;;;;;;5052758;28;20103;-79
2022/03/12 04:33:34;;;;;;;0.22;0.10;;;6.30;54.50;;;;;;5052603;28;20053;-79
2022/03/12 04:36:02;;;;;;;0.00;0.00;;;6.30;54.40;;;;;;5052563;28;20045;-79
2022/03/12 04:38:28;;;;;;;0.43;0.43;;;6.30;54.40;;;;;;5035956;28;20103;-78
2022/03/12 04:40:55;;;;;;;0.10;0.10;;;6.30;54.80;;;;;;5052543;28;20436;-79
2022/03/12 04:43:26;;;;;;;0.57;0.35;;;6.30;55.00;;;;;;5052579;28;20092;-78
2022/03/12 04:45:52;;;;;;;0.30;0.20;;;6.30;54.70;;;;;;5036254;28;20052;-79
2022/03/12 04:48:21;;;;;;;0.03;0.03;;;6.20;54.90;;;;;;5052724;28;20037;-79
2022/03/12 04:50:48;;;;;;;0.20;0.10;;;6.20;55.00;;;;;;5052418;28;20575;-78
2022/03/12 04:53:15;;;;;;;0.00;0.00;;;6.20;55.20;;;;;;5052543;28;20056;-78
2022/03/12 04:55:44;;;;;;;0.00;0.00;;;6.10;55.10;;;;;;5052440;28;20102;-79
2022/03/12 04:58:10;;;;;;;0.77;0.20;;;6.10;55.40;;;;;;5052226;28;20553;-78
2022/03/12 05:00:38;;;;;;;0.00;0.00;;;6.00;55.70;;;;;;5035616;28;20045;-79
2022/03/12 05:03:12;;;;;;;0.45;0.40;;;6.00;55.30;;;;;;5035473;28;20548;-78
2022/03/12 05:05:42;;;;;;;2.63;0.30;;;5.90;55.30;;;;;;5035768;28;20048;-79
2022/03/12 05:08:19;;;;;;;0.00;0.00;;;5.90;55.40;;;;;;5052100;28;20122;-79
2022/03/12 05:10:52;;;;;;;0.08;0.08;;;5.90;56.20;;;;;;5052079;28;20072;-78
2022/03/12 05:13:27;;;;;;;0.17;0.10;;;5.90;56.00;;;;;;5035862;28;20049;-79
2022/03/12 05:15:55;;;;;;;0.50;0.08;;;5.80;55.90;;;;;;5052252;28;20077;-79
2022/03/12 05:18:23;;;;;;;0.00;0.00;;;5.80;55.90;;;;;;5052165;28;20085;-78
2022/03/12 05:20:49;;;;;;;0.10;0.10;;;5.80;56.30;;;;;;5035702;28;20056;-79
2022/03/12 05:23:17;;;;;;;0.00;0.00;;;5.70;56.40;;;;;;5039350;28;20231;-79
2022/03/12 05:25:44;;;;;;;0.50;0.50;;;5.70;56.80;;;;;;5039266;28;20511;-79
2022/03/12 05:28:15;;;;;;;0.20;0.20;;;5.60;56.50;;;;;;5055854;28;20048;-79
2022/03/12 05:30:45;;;;;;;0.00;0.00;;;5.50;56.80;;;;;;5055833;28;20447;-79
2022/03/12 05:33:11;;;;;;;0.10;0.00;;;5.50;57.10;;;;;;5056334;28;20110;-79
2022/03/12 05:35:40;;;;;;;0.15;0.03;;;5.50;56.80;;;;;;5056173;28;20048;-79
2022/03/12 05:38:06;;;;;;;0.30;0.13;;;5.50;56.90;;;;;;5039143;28;20053;-79
2022/03/12 05:40:37;;;;;;;0.35;0.20;;;5.50;57.00;;;;;;5055497;28;20033;-79
2022/03/12 05:43:07;;;;;;;0.00;0.00;;;5.50;56.80;;;;;;5039689;28;20064;-79
2022/03/12 05:45:33;;;;;;;0.10;0.00;;;5.50;57.00;;;;;;5055904;28;20124;-79
2022/03/12 05:47:59;;;;;;;0.25;0.25;;;5.50;57.00;;;;;;5038916;28;20083;-79
2022/03/12 05:50:25;;;;;;;0.05;0.05;;;5.50;56.90;;;;;;5055670;28;20045;-78
2022/03/12 05:52:52;;;;;;;0.00;0.00;;;5.50;57.10;;;;;;5055369;28;20501;-79
2022/03/12 05:55:20;;;;;;;0.05;0.05;;;5.50;57.30;;;;;;5055484;28;20067;-78
2022/03/12 05:57:46;;;;;;;0.20;0.20;;;5.50;57.20;;;;;;5055500;28;20048;-79
2022/03/12 06:00:13;;;;;;;0.00;0.00;;;5.60;57.40;;;;;;5055582;28;20047;-79
2022/03/12 06:02:49;;;;;;;6.35;0.95;;;5.60;57.40;;;;;;5055482;28;20412;-79
2022/03/12 06:05:20;;;;;;;0.00;0.00;;;5.60;57.50;;;;;;5039204;28;20401;-78
2022/03/12 06:07:47;;;;;;;0.00;0.00;;;5.60;57.20;;;;;;5038301;28;20497;-79
2022/03/12 06:10:14;;;;;;;0.05;0.00;;;5.70;57.70;;;;;;5055298;28;20068;-79
2022/03/12 06:12:43;;;;;;;0.98;0.17;;;5.70;57.20;;;;;;5038809;28;20084;-79
2022/03/12 06:15:11;;;;;;;0.13;0.10;;;5.70;57.40;;;;;;5038686;28;20499;-79
2022/03/12 06:17:38;;;;;;;1.00;0.75;;;5.70;57.80;;;;;;5055171;28;20060;-79
2022/03/12 06:20:04;;;;;;;3.10;1.13;;;5.70;58.00;;;;;;5054931;28;20059;-79
2022/03/12 06:22:30;;;;;;;0.73;0.43;;;5.70;57.90;;;;;;5055017;28;20481;-79
2022/03/12 06:24:55;;;;;;;0.30;0.30;;;5.70;58.00;;;;;;5054837;28;20064;-79
2022/03/12 06:27:22;;;;;;;0.00;0.00;;;5.70;57.80;;;;;;5054955;28;20083;-79
2022/03/12 06:29:48;;;;;;;0.10;0.10;;;5.70;58.10;;;;;;5054902;28;20106;-79
2022/03/12 06:32:14;;;;;;;0.10;0.10;;;5.70;58.20;;;;;;5054919;28;20049;-79
2022/03/12 06:34:41;;;;;;;0.00;0.00;;;5.70;58.10;;;;;;5054255;28;20088;-79
2022/03/12 06:37:08;;;;;;;0.35;0.35;;;5.70;58.30;;;;;;5054751;28;20048;-79
2022/03/12 06:39:34;;;;;;;0.00;0.00;;;5.80;58.30;;;;;;5054697;28;20434;-79
2022/03/12 06:42:01;;;;;;;0.10;0.10;;;5.90;58.30;;;;;;5042514;28;20098;-79
2022/03/12 06:44:32;;;;;;;0.00;0.00;;;5.80;58.20;;;;;;5061338;28;20055;-79
2022/03/12 06:46:59;;;;;;;0.80;0.52;;;5.90;58.20;;;;;;5052306;28;20052;-79
2022/03/12 06:49:25;;;;;;;0.20;0.20;;;5.90;58.10;;;;;;5037876;28;20052;-79
2022/03/12 06:51:50;;;;;;;0.10;0.05;;;5.90;58.40;;;;;;5054111;28;20061;-79
2022/03/12 06:54:16;;;;;;;0.55;0.45;;;6.00;58.10;;;;;;5055051;28;20044;-79
2022/03/12 06:56:42;;;;;;;0.00;0.00;;;6.00;58.20;;;;;;5053953;28;20068;-79
2022/03/12 06:59:08;;;;;;;0.10;0.10;;;6.10;58.30;;;;;;5054332;28;20044;-79
2022/03/12 07:01:34;;;;;;;0.00;0.00;;;6.10;58.50;;;;;;5053807;28;20131;-79
2022/03/12 07:03:59;;;;;;;1.48;0.50;;;6.10;58.20;;;;;;5054248;28;20051;-79
2022/03/12 07:06:25;;;;;;;1.48;0.40;;;6.20;58.50;;;;;;5054326;28;20080;-79
2022/03/12 07:08:51;;;;;;;0.00;0.00;;;6.20;58.30;;;;;;5053948;28;20045;-79
2022/03/12 07:11:19;;;;;;;1.17;0.38;;;6.30;58.50;;;;;;5053877;28;20053;-79
2022/03/12 07:13:46;;;;;;;3.33;0.08;;;6.30;58.50;;;;;;5054092;28;20087;-79
2022/03/12 07:16:12;;;;;;;1.33;0.63;;;6.40;58.30;;;;;;5037650;28;20060;-79
2022/03/12 07:18:41;;;;;;;0.10;0.10;;;6.40;58.20;;;;;;5053707;28;20053;-79
2022/03/12 07:21:07;;;;;;;2.17;0.10;;;6.40;58.20;;;;;;5037144;28;20040;-80
2022/03/12 07:23:33;;;;;;;0.00;0.00;;;6.50;58.50;;;;;;5037661;28;20511;-80
2022/03/12 07:25:59;;;;;;;0.45;0.35;;;6.50;58.80;;;;;;5053820;28;20546;-79
2022/03/12 07:28:24;;;;;;;0.45;0.10;;;6.50;59.10;;;;;;5053858;28;20049;-79
2022/03/12 07:30:50;;;;;;;0.22;0.22;;;6.60;59.00;;;;;;5053913;28;20109;-79
2022/03/12 07:33:16;;;;;;;0.17;0.17;;;6.70;58.80;;;;;;5037039;28;20041;-79
2022/03/12 07:35:42;;;;;;;0.25;0.25;;;7.10;58.70;;;;;;5054144;28;20068;-79
2022/03/12 07:38:08;;;;;;;0.13;0.10;;;7.50;57.60;;;;;;5053302;28;20037;-78
2022/03/12 07:40:33;;;;;;;0.10;0.10;;;8.00;57.60;;;;;;5053432;28;20041;-79
2022/03/12 07:42:59;;;;;;;0.20;0.20;;;8.40;56.60;;;;;;5053556;28;20056;-78
2022/03/12 07:45:25;;;;;;;3.17;0.10;;;8.60;55.40;;;;;;5052667;28;20041;-78
2022/03/12 07:47:52;;;;;;;1.45;0.10;;;8.90;55.10;;;;;;5053338;28;20404;-78
2022/03/12 07:50:18;;;;;;;0.10;0.10;;;9.10;55.10;;;;;;5053377;28;20482;-78
2022/03/12 07:52:45;;;;;;;0.00;0.00;;;9.10;54.80;;;;;;5053450;28;20041;-79
2022/03/12 07:55:12;;;;;;;0.77;0.77;;;9.10;55.10;;;;;;5052884;28;20511;-79
2022/03/12 07:57:40;;;;;;;0.30;0.30;;;9.10;55.20;;;;;;5053261;28;20485;-79
2022/03/12 08:00:07;;;;;;;0.35;0.10;;;9.10;54.90;;;;;;5053025;28;20477;-79
2022/03/12 08:02:33;;;;;;;0.00;0.00;;;9.20;55.60;;;;;;5052859;28;20056;-79
2022/03/12 08:04:59;;;;;;;0.88;0.10;;;9.20;55.40;;;;;;5053149;28;20045;-79
2022/03/12 08:07:26;;;;;;;0.10;0.08;;;9.20;55.10;;;;;;5036422;28;20044;-79
2022/03/12 08:09:56;;;;;;;0.40;0.40;;;9.30;55.60;;;;;;5052712;28;20516;-78
2022/03/12 08:12:27;;;;;;;2.45;0.75;;;9.20;55.80;;;;;;5052912;28;20045;-78
2022/03/12 08:14:53;;;;;;;1.45;0.65;;;9.20;55.90;;;;;;5052850;28;20190;-79
2022/03/12 08:17:22;;;;;;;1.27;0.40;;;9.30;56.00;;;;;;5052900;28;20095;-79
2022/03/12 08:19:48;;;;;;;0.20;0.20;;;9.30;55.60;;;;;;5052916;28;20047;-78
2022/03/12 08:22:15;;;;;;;0.00;0.00;;;9.50;55.80;;;;;;5053232;28;20132;-79
2022/03/12 08:24:40;;;;;;;1.05;0.10;;;9.60;55.80;;;;;;5052836;28;20603;-79
2022/03/12 08:27:07;;;;;;;0.00;0.00;;;9.60;55.40;;;;;;5036146;28;20135;-79
2022/03/12 08:29:33;;;;;;;0.13;0.10;;;9.80;55.80;;;;;;5052421;28;20048;-79
2022/03/12 08:31:59;;;;;;;2.15;0.70;;;10.10;56.00;;;;;;5053048;28;20476;-79
2022/03/12 08:34:25;;;;;;;0.85;0.85;;;10.30;55.00;;;;;;5052599;28;20148;-79
2022/03/12 08:36:51;;;;;;;0.00;0.00;;;10.40;55.40;;;;;;5052692;28;20060;-79
2022/03/12 08:39:17;;;;;;;0.00;0.00;;;10.60;55.60;;;;;;5052410;28;20045;-79
2022/03/12 08:41:44;;;;;;;0.10;0.10;;;10.80;55.70;;;;;;5036137;28;20051;-79
2022/03/12 08:44:10;;;;;;;0.63;0.52;;;11.00;55.80;;;;;;5052508;28;20092;-79
2022/03/12 08:46:37;;;;;;;0.43;0.28;;;11.00;55.40;;;;;;5052442;28;20061;-79
2022/03/12 08:49:04;;;;;;;0.65;0.45;;;11.00;55.70;;;;;;5052686;28;20045;-79
2022/03/12 08:51:30;;;;;;;0.20;0.20;;;11.10;56.00;;;;;;5052510;28;20049;-79
2022/03/12 08:53:56;;;;;;;1.10;0.20;;;11.20;55.80;;;;;;5052465;28;20041;-79
2022/03/12 08:56:22;;;;;;;0.32;0.28;;;11.20;56.10;;;;;;5053063;28;20147;-79
2022/03/12 08:58:48;;;;;;;0.00;0.00;;;11.20;56.10;;;;;;5039773;28;20179;-79
2022/03/12 09:01:15;;;;;;;0.57;0.40;;;11.30;56.70;;;;;;5056603;28;20387;-79
2022/03/12 09:03:42;;;;;;;2.92;0.90;;;11.50;56.70;;;;;;5056610;28;20080;-80
2022/03/12 09:06:07;;;;;;;0.08;0.08;;;11.60;56.90;;;;;;5056758;28;20080;-79
2022/03/12 09:08:35;;;;;;;0.47;0.30;;;11.70;56.90;;;;;;5056249;28;20440;-79
2022/03/12 09:11:01;;;;;;;0.10;0.10;;;11.90;57.10;;;;;;5056233;28;20515;-79
2022/03/12 09:13:27;;;;;;;1.17;0.60;;;12.20;57.60;;;;;;5039967;28;20045;-79
2022/03/12 09:15:54;;;;;;;0.43;0.43;;;12.50;57.70;;;;;;5056347;28;20515;-79
2022/03/12 09:18:20;;;;;;;0.00;0.00;;;12.60;57.30;;;;;;5056767;28;20045;-79
2022/03/12 09:20:47;;;;;;;0.15;0.15;;;12.70;56.90;;;;;;5056165;28;20048;-79
2022/03/12 09:23:18;;;;;;;2.70;0.13;;;13.00;57.30;;;;;;5056240;28;20041;-79
2022/03/12 09:25:45;;;;;;;1.02;0.08;;;13.10;56.90;;;;;;5056177;28;20115;-79
2022/03/12 09:28:13;;;;;;;3.50;0.57;;;13.20;57.30;;;;;;5056211;28;20131;-79
2022/03/12 09:30:38;;;;;;;0.43;0.43;;;13.30;58.10;;;;;;5039640;28;20048;-79
2022/03/12 09:33:05;;;;;;;0.22;0.22;;;13.50;58.20;;;;;;5056040;28;20098;-79
2022/03/12 09:35:31;;;;;;;0.20;0.17;;;13.60;57.60;;;;;;5039801;28;20065;-79
2022/03/12 09:37:58;;;;;;;1.20;1.10;;;13.60;57.50;;;;;;5055773;28;20455;-79
2022/03/12 09:40:24;;;;;;;0.75;0.47;;;13.50;58.00;;;;;;5039149;28;20128;-79
2022/03/12 09:42:50;;;;;;;0.00;0.00;;;13.80;58.70;;;;;;5055896;28;20101;-79
2022/03/12 09:45:16;;;;;;;4.65;0.68;;;13.90;57.50;;;;;;5055659;28;20420;-79
2022/03/12 09:47:43;;;;;;;0.30;0.30;;;14.00;58.20;;;;;;5055780;28;20473;-79
2022/03/12 09:50:09;;;;;;;0.10;0.10;;;13.90;58.20;;;;;;5055763;28;20099;-79
2022/03/12 09:52:35;;;;;;;0.13;0.13;;;14.00;58.30;;;;;;5055615;28;20401;-79
2022/03/12 09:55:01;;;;;;;0.35;0.35;;;14.10;58.10;;;;;;5055884;28;20095;-79
2022/03/12 09:57:26;;;;;;;1.23;0.45;;;14.00;58.20;;;;;;5039488;28;20103;-79
2022/03/12 09:59:52;;;;;;;0.60;0.05;;;13.90;58.80;;;;;;5039016;28;20457;-79
2022/03/12 10:02:19;;;;;;;1.35;0.43;;;14.20;59.20;;;;;;5055425;28;20092;-79
2022/03/12 10:04:45;;;;;;;0.10;0.10;;;14.20;58.20;;;;;;5055116;28;20574;-79
2022/03/12 10:07:11;;;;;;;3.63;0.22;;;14.20;58.20;;;;;;5038805;28;20053;-79
2022/03/12 10:09:37;;;;;;;0.20;0.20;;;14.10;58.60;;;;;;5053905;28;20150;-79
2022/03/12 10:12:04;;;;;;;2.88;0.63;;;14.30;58.80;;;;;;5055226;28;20481;-79
2022/03/12 10:14:30;;;;;;;0.98;0.20;;;14.40;58.90;;;;;;5055303;28;20045;-79
2022/03/12 10:16:56;;;;;;;0.10;0.10;;;14.30;59.00;;;;;;5055863;28;20040;-79
2022/03/12 10:19:22;;;;;;;0.10;0.10;;;14.30;59.20;;;;;;5038447;28;20471;-79
2022/03/12 10:21:50;;;;;;;0.88;0.65;;;14.30;60.00;;;;;;5055078;28;20049;-79
2022/03/12 10:24:15;;;;;;;0.00;0.00;;;14.50;59.70;;;;;;5055521;28;20049;-79
2022/03/12 10:26:42;;;;;;;0.10;0.08;;;14.60;59.80;;;;;;5054922;28;20111;-79
2022/03/12 10:29:08;;;;;;;1.08;0.55;;;14.50;60.10;;;;;;5054843;28;20045;-79
2022/03/12 10:31:34;;;;;;;0.80;0.50;;;14.40;61.10;;;;;;5055234;28;20053;-79
2022/03/12 10:34:18;;;;;;;2.53;0.80;;;14.30;62.00;;;;;;5054983;28;20072;-79
2022/03/12 10:36:44;;;;;;;0.00;0.00;;;14.30;62.40;;;;;;5054747;28;20095;-79
2022/03/12 10:39:10;;;;;;;0.38;0.20;;;14.20;63.10;;;;;;5054602;28;20052;-79
2022/03/12 10:41:39;;;;;;;0.00;0.00;;;14.30;63.60;;;;;;5054481;28;20041;-79
2022/03/12 10:44:05;;;;;;;1.30;0.55;;;14.30;65.00;;;;;;5054656;28;20465;-79
2022/03/12 10:46:33;;;;;;;0.70;0.28;;;14.30;64.50;;;;;;5054713;28;20397;-79
2022/03/12 10:49:00;;;;;;;0.10;0.10;;;14.30;64.60;;;;;;5054535;28;20067;-79
2022/03/12 10:51:28;;;;;;;0.32;0.00;;;14.40;64.80;;;;;;5055164;28;20041;-79
2022/03/12 10:54:08;;;;;;;0.40;0.20;;;14.40;64.90;;;;;;5054505;28;20097;-79
2022/03/12 10:56:42;;;;;;;0.10;0.05;;;14.30;65.00;;;;;;5054588;28;20492;-79
2022/03/12 10:59:35;;;;;;;0.17;0.10;;;14.20;65.40;;;;;;5054425;28;20056;-79
2022/03/12 11:02:04;;;;;;;0.00;0.00;;;14.20;65.20;;;;;;5053128;28;20082;-79
2022/03/12 11:04:33;;;;;;;0.75;0.75;;;14.10;66.40;;;;;;5054074;28;20542;-79
2022/03/12 11:07:20;;;;;;;0.88;0.10;;;14.10;66.40;;;;;;5054189;28;20064;-79
2022/03/12 11:09:47;;;;;;;0.00;0.00;;;14.00;66.30;;;;;;5053906;28;20061;-79
2022/03/12 11:12:30;;;;;;;0.00;0.00;;;14.10;66.90;;;;;;5037573;28;20404;-79
2022/03/12 11:15:23;;;;;;;0.95;0.38;;;14.10;67.10;;;;;;5037701;28;20049;-79
2022/03/12 11:17:51;;;;;;;1.75;0.05;;;14.20;66.90;;;;;;5053123;28;20056;-80
2022/03/12 11:20:23;;;;;;;0.15;0.15;;;14.30;67.40;;;;;;5037058;28;20090;-79
2022/03/12 11:23:12;;;;;;;1.25;0.20;;;14.30;67.70;;;;;;5054216;28;20052;-79
2022/03/12 11:25:56;;;;;;;0.10;0.10;;;14.20;67.90;;;;;;5053897;28;20041;-79
2022/03/12 11:28:23;;;;;;;0.10;0.10;;;14.20;68.40;;;;;;5054378;28;20149;-79
2022/03/12 11:30:50;;;;;;;0.28;0.28;;;14.40;69.00;;;;;;5053647;28;20087;-79
2022/03/12 11:33:17;;;;;;;0.35;0.28;;;14.50;68.40;;;;;;5053824;28;20055;-79
2022/03/12 11:35:45;;;;;;;0.10;0.10;;;14.50;68.30;;;;;;5053642;28;20132;-79
2022/03/12 11:38:29;;;;;;;0.10;0.10;;;14.50;68.20;;;;;;5053271;28;20114;-79
2022/03/12 11:41:09;;;;;;;0.20;0.20;;;14.40;69.00;;;;;;5053553;28;20440;-79
2022/03/12 11:43:40;;;;;;;1.45;0.47;;;14.50;68.20;;;;;;5053808;28;20041;-79
2022/03/12 11:46:08;;;;;;;1.10;0.28;;;14.60;69.50;;;;;;5053582;28;20052;-79
2022/03/12 11:48:36;;;;;;;0.00;0.00;;;14.60;69.30;;;;;;5053592;28;20044;-79
2022/03/12 11:51:04;;;;;;;0.13;0.00;;;14.60;68.80;;;;;;5036932;28;20047;-79
2022/03/12 11:53:38;;;;;;;0.20;0.17;;;14.70;69.30;;;;;;5036796;28;20052;-79
2022/03/12 11:56:05;;;;;;;0.55;0.00;;;14.70;69.70;;;;;;5053853;28;20095;-79
2022/03/12 11:58:32;;;;;;;0.03;0.03;;;15.00;69.30;;;;;;5036835;28;20528;-79
2022/03/12 12:00:58;;;;;;;2.08;0.50;;;15.30;68.40;;;;;;5053683;28;20474;-79
2022/03/12 12:03:23;;;;;;;0.00;0.00;;;15.50;67.40;;;;;;5053443;28;20127;-79
2022/03/12 12:05:49;;;;;;;0.00;0.00;;;15.60;68.20;;;;;;5053155;28;20126;-80
2022/03/12 12:08:15;;;;;;;0.65;0.00;;;15.60;67.70;;;;;;5052945;28;20052;-79
2022/03/12 12:10:42;;;;;;;1.95;0.17;;;15.60;67.40;;;;;;5052797;28;20060;-79
2022/03/12 12:13:13;;;;;;;0.00;0.00;;;15.60;67.30;;;;;;5036412;28;20104;-79
2022/03/12 12:15:40;;;;;;;1.45;0.20;;;15.50;67.40;;;;;;5053401;28;20483;-79
2022/03/12 12:18:12;;;;;;;0.03;0.03;;;15.50;67.40;;;;;;5036379;28;20477;-79
2022/03/12 12:20:39;;;;;;;0.20;0.05;;;15.50;66.20;;;;;;5052549;28;20049;-79
2022/03/12 12:23:05;;;;;;;2.13;0.20;;;15.60;66.80;;;;;;5053091;28;20060;-79
2022/03/12 12:25:36;;;;;;;1.45;0.00;;;15.80;66.40;;;;;;5052862;28;20139;-79
2022/03/12 12:28:17;;;;;;;2.63;0.00;;;16.00;65.60;;;;;;5053005;28;20059;-80
2022/03/12 12:30:45;;;;;;;0.15;0.15;;;16.00;65.80;;;;;;5052277;28;20496;-80
2022/03/12 12:33:26;;;;;;;0.10;0.10;;;16.10;65.00;;;;;;5052343;28;20056;-79
2022/03/12 12:36:13;;;;;;;0.10;0.10;;;16.20;64.40;;;;;;5052901;28;20136;-79
2022/03/12 12:38:43;;;;;;;2.53;0.38;;;16.10;64.20;;;;;;5053421;28;20128;-79
2022/03/12 12:41:10;;;;;;;0.90;0.47;;;16.00;64.40;;;;;;5052513;28;20408;-79
2022/03/12 12:43:45;;;;;;;0.05;0.05;;;16.00;64.50;;;;;;5036013;28;20091;-79
2022/03/12 12:46:17;;;;;;;0.00;0.00;;;16.00;64.30;;;;;;5052617;28;20136;-79
2022/03/12 12:48:48;;;;;;;0.10;0.00;;;16.00;64.60;;;;;;5052547;28;20049;-79
2022/03/12 12:51:17;;;;;;;6.70;0.47;;;16.00;64.50;;;;;;5052568;28;20492;-79
2022/03/12 12:53:54;;;;;;;1.30;0.10;;;15.90;64.00;;;;;;5052164;28;20435;-79
2022/03/12 12:56:24;;;;;;;0.10;0.00;;;15.70;64.10;;;;;;5052952;28;20056;-79
2022/03/12 12:58:52;;;;;;;0.08;0.08;;;15.50;64.00;;;;;;5036131;28;20095;-80